sensor_id;sensor_type;location;lat;lon;timestamp;pressure;altitude;pressure_sealevel;temperature;humidity
57990;BME280;58373;51.824;5.564;2023-01-25T00:01:22;103692.56;;;-0.57;95.75
57990;BME280;58373;51.824;5.564;2023-01-25T00:03:47;103708.78;;;-0.50;95.96
57990;BME280;58373;51.824;5.564;2023-01-25T00:06:13;103713.94;;;-0.44;96.21
57990;BME280;58373;51.824;5.564;2023-01-25T00:08:38;103694.28;;;-0.55;95.64
57990;BME280;58373;51.824;5.564;2023-01-25T00:11:03;103710.50;;;-0.46;96.66
57990;BME280;58373;51.824;5.564;2023-01-25T00:13:29;103705.38;;;-0.49;96.28
57990;BME280;58373;51.824;5.564;2023-01-25T00:16:00;103700.22;;;-0.52;96.32
57990;BME280;58373;51.824;5.564;2023-01-25T00:18:26;103705.31;;;-0.52;96.13
57990;BME280;58373;51.824;5.564;2023-01-25T00:20:51;103712.16;;;-0.51;95.74
57990;BME280;58373;51.824;5.564;2023-01-25T00:23:17;103703.63;;;-0.55;96.14
57990;BME280;58373;51.824;5.564;2023-01-25T00:25:42;103700.16;;;-0.59;95.78
57990;BME280;58373;51.824;5.564;2023-01-25T00:28:07;103698.47;;;-0.60;95.59
57990;BME280;58373;51.824;5.564;2023-01-25T00:30:33;103691.66;;;-0.61;95.70
57990;BME280;58373;51.824;5.564;2023-01-25T00:38:46;103692.41;;;-0.69;95.52
57990;BME280;58373;51.824;5.564;2023-01-25T00:41:12;103685.53;;;-0.76;95.64
57990;BME280;58373;51.824;5.564;2023-01-25T00:43:37;103680.44;;;-0.76;95.83
57990;BME280;58373;51.824;5.564;2023-01-25T00:46:03;103688.13;;;-0.72;95.58
57990;BME280;58373;51.824;5.564;2023-01-25T00:48:28;103682.19;;;-0.72;96.17
57990;BME280;58373;51.824;5.564;2023-01-25T00:50:53;103691.53;;;-0.70;96.18
57990;BME280;58373;51.824;5.564;2023-01-25T00:53:19;103679.69;;;-0.68;96.06
57990;BME280;58373;51.824;5.564;2023-01-25T00:55:51;103682.25;;;-0.68;96.47
57990;BME280;58373;51.824;5.564;2023-01-25T00:58:17;103671.09;;;-0.76;96.31
57990;BME280;58373;51.824;5.564;2023-01-25T01:00:42;103677.88;;;-0.75;96.22
57990;BME280;58373;51.824;5.564;2023-01-25T01:03:08;103675.38;;;-0.73;95.87
57990;BME280;58373;51.824;5.564;2023-01-25T01:05:33;103688.13;;;-0.73;95.90
57990;BME280;58373;51.824;5.564;2023-01-25T01:08:00;103679.56;;;-0.77;95.70
57990;BME280;58373;51.824;5.564;2023-01-25T01:10:25;103682.97;;;-0.75;96.19
57990;BME280;58373;51.824;5.564;2023-01-25T01:12:51;103677.88;;;-0.75;96.10
57990;BME280;58373;51.824;5.564;2023-01-25T01:15:16;103681.28;;;-0.76;95.82
57990;BME280;58373;51.824;5.564;2023-01-25T01:17:41;103673.63;;;-0.77;95.64
57990;BME280;58373;51.824;5.564;2023-01-25T01:20:07;103672.72;;;-0.81;95.59
57990;BME280;58373;51.824;5.564;2023-01-25T01:22:33;103660.75;;;-0.91;96.08
57990;BME280;58373;51.824;5.564;2023-01-25T01:24:58;103680.34;;;-0.84;95.57
57990;BME280;58373;51.824;5.564;2023-01-25T01:27:23;103673.50;;;-0.87;95.74
57990;BME280;58373;51.824;5.564;2023-01-25T01:29:49;103686.25;;;-0.87;95.47
57990;BME280;58373;51.824;5.564;2023-01-25T01:32:14;103681.13;;;-0.91;95.31
57990;BME280;58373;51.824;5.564;2023-01-25T01:34:39;103677.72;;;-0.90;95.57
57990;BME280;58373;51.824;5.564;2023-01-25T01:37:05;103680.28;;;-0.90;95.28
57990;BME280;58373;51.824;5.564;2023-01-25T01:39:30;103683.69;;;-0.87;95.16
57990;BME280;58373;51.824;5.564;2023-01-25T01:41:55;103679.44;;;-0.89;94.73
57990;BME280;58373;51.824;5.564;2023-01-25T01:44:50;103676.03;;;-0.88;95.58
57990;BME280;58373;51.824;5.564;2023-01-25T01:47:32;103681.91;;;-0.94;95.63
57990;BME280;58373;51.824;5.564;2023-01-25T01:50:04;103675.97;;;-0.94;95.26
57990;BME280;58373;51.824;5.564;2023-01-25T01:52:34;103681.94;;;-0.92;95.63
57990;BME280;58373;51.824;5.564;2023-01-25T01:55:02;103686.22;;;-0.91;95.31
57990;BME280;58373;51.824;5.564;2023-01-25T01:57:34;103681.13;;;-0.91;95.54
57990;BME280;58373;51.824;5.564;2023-01-25T02:00:13;103677.72;;;-0.90;95.64
57990;BME280;58373;51.824;5.564;2023-01-25T02:02:40;103665.00;;;-0.90;95.48
57990;BME280;58373;51.824;5.564;2023-01-25T02:05:10;103667.50;;;-0.93;95.81
57990;BME280;58373;51.824;5.564;2023-01-25T02:07:39;103659.84;;;-0.95;96.10
57990;BME280;58373;51.824;5.564;2023-01-25T02:10:07;103664.97;;;-0.92;96.64
57990;BME280;58373;51.824;5.564;2023-01-25T02:12:34;103662.38;;;-0.96;96.01
57990;BME280;58373;51.824;5.564;2023-01-25T02:15:01;103655.56;;;-0.97;95.70
57990;BME280;58373;51.824;5.564;2023-01-25T02:17:28;103664.94;;;-0.93;95.57
57990;BME280;58373;51.824;5.564;2023-01-25T02:20:26;103649.59;;;-0.99;96.06
57990;BME280;58373;51.824;5.564;2023-01-25T02:22:58;103656.44;;;-0.94;96.09
57990;BME280;58373;51.824;5.564;2023-01-25T02:25:27;103652.19;;;-0.93;95.83
57990;BME280;58373;51.824;5.564;2023-01-25T02:28:20;103651.34;;;-0.94;95.58
57990;BME280;58373;51.824;5.564;2023-01-25T02:30:47;103643.66;;;-0.98;95.58
57990;BME280;58373;51.824;5.564;2023-01-25T02:33:12;103643.63;;;-1.00;95.59
57990;BME280;58373;51.824;5.564;2023-01-25T02:35:52;103648.78;;;-0.95;95.82
57990;BME280;58373;51.824;5.564;2023-01-25T02:38:19;103652.19;;;-0.96;95.93
57990;BME280;58373;51.824;5.564;2023-01-25T02:40:52;103647.09;;;-0.96;95.54
57990;BME280;58373;51.824;5.564;2023-01-25T02:43:20;103648.78;;;-0.95;95.39
57990;BME280;58373;51.824;5.564;2023-01-25T02:45:51;103645.34;;;-1.00;95.12
57990;BME280;58373;51.824;5.564;2023-01-25T02:48:20;103632.53;;;-1.07;94.54
57990;BME280;58373;51.824;5.564;2023-01-25T02:50:45;103637.63;;;-1.05;95.42
57990;BME280;58373;51.824;5.564;2023-01-25T02:53:10;103651.28;;;-1.00;95.47
57990;BME280;58373;51.824;5.564;2023-01-25T02:55:36;103631.69;;;-1.05;96.04
57990;BME280;58373;51.824;5.564;2023-01-25T02:58:01;103640.19;;;-1.03;95.58
57990;BME280;58373;51.824;5.564;2023-01-25T03:00:26;103636.84;;;-1.02;95.94
57990;BME280;58373;51.824;5.564;2023-01-25T03:02:52;103636.84;;;-1.02;95.03
57990;BME280;58373;51.824;5.564;2023-01-25T03:05:17;103631.75;;;-0.99;95.58
57990;BME280;58373;51.824;5.564;2023-01-25T03:07:42;103635.16;;;-1.00;95.64
57990;BME280;58373;51.824;5.564;2023-01-25T03:10:08;103633.31;;;-1.09;95.78
57990;BME280;58373;51.824;5.564;2023-01-25T03:12:34;103624.03;;;-1.07;95.57
57990;BME280;58373;51.824;5.564;2023-01-25T03:14:59;103634.28;;;-1.02;96.02
57990;BME280;58373;51.824;5.564;2023-01-25T03:17:24;103611.28;;;-1.09;96.00
57990;BME280;58373;51.824;5.564;2023-01-25T03:19:50;103609.56;;;-1.10;95.68
57990;BME280;58373;51.824;5.564;2023-01-25T03:22:16;103612.94;;;-1.11;95.86
57990;BME280;58373;51.824;5.564;2023-01-25T03:24:41;103601.91;;;-1.13;96.09
57990;BME280;58373;51.824;5.564;2023-01-25T03:27:06;103597.63;;;-1.14;95.61
57990;BME280;58373;51.824;5.564;2023-01-25T03:29:35;103593.47;;;-1.09;95.86
57990;BME280;58373;51.824;5.564;2023-01-25T03:32:01;103599.41;;;-1.07;96.31
57990;BME280;58373;51.824;5.564;2023-01-25T03:34:26;103581.53;;;-1.11;96.40
57990;BME280;58373;51.824;5.564;2023-01-25T03:36:51;103590.09;;;-1.04;96.26
57990;BME280;58373;51.824;5.564;2023-01-25T03:39:17;103585.00;;;-1.04;96.23
57990;BME280;58373;51.824;5.564;2023-01-25T03:41:42;103594.31;;;-1.07;96.22
57990;BME280;58373;51.824;5.564;2023-01-25T03:44:08;103593.47;;;-1.05;96.31
57990;BME280;58373;51.824;5.564;2023-01-25T03:46:36;103590.03;;;-1.09;96.18
57990;BME280;58373;51.824;5.564;2023-01-25T03:49:01;103598.56;;;-1.09;96.02
57990;BME280;58373;51.824;5.564;2023-01-25T03:51:27;103585.75;;;-1.15;95.93
57990;BME280;58373;51.824;5.564;2023-01-25T03:53:52;103588.31;;;-1.12;95.85
57990;BME280;58373;51.824;5.564;2023-01-25T03:56:17;103590.88;;;-1.12;96.13
57990;BME280;58373;51.824;5.564;2023-01-25T03:58:45;103596.00;;;-1.09;96.10
57990;BME280;58373;51.824;5.564;2023-01-25T04:01:11;103589.16;;;-1.13;95.57
57990;BME280;58373;51.824;5.564;2023-01-25T04:03:36;103592.63;;;-1.08;95.88
57990;BME280;58373;51.824;5.564;2023-01-25T04:06:03;103597.72;;;-1.08;96.31
57990;BME280;58373;51.824;5.564;2023-01-25T04:08:29;103584.06;;;-1.13;95.80
57990;BME280;58373;51.824;5.564;2023-01-25T04:11:03;103574.72;;;-1.14;95.97
57990;BME280;58373;51.824;5.564;2023-01-25T04:13:29;103580.69;;;-1.12;95.34
57990;BME280;58373;51.824;5.564;2023-01-25T04:15:55;103588.31;;;-1.13;96.35
57990;BME280;58373;51.824;5.564;2023-01-25T04:18:20;103573.03;;;-1.15;95.52
57990;BME280;58373;51.824;5.564;2023-01-25T04:20:54;103575.56;;;-1.15;95.63
57990;BME280;58373;51.824;5.564;2023-01-25T04:23:20;103571.25;;;-1.19;95.60
57990;BME280;58373;51.824;5.564;2023-01-25T04:26:00;103568.72;;;-1.19;95.29
57990;BME280;58373;51.824;5.564;2023-01-25T04:28:26;103567.81;;;-1.22;95.43
57990;BME280;58373;51.824;5.564;2023-01-25T04:30:53;103567.00;;;-1.20;95.70
57990;BME280;58373;51.824;5.564;2023-01-25T04:33:19;103561.03;;;-1.22;95.73
57990;BME280;58373;51.824;5.564;2023-01-25T04:35:45;103561.06;;;-1.20;95.79
57990;BME280;58373;51.824;5.564;2023-01-25T04:38:10;103560.19;;;-1.21;95.75
57990;BME280;58373;51.824;5.564;2023-01-25T04:40:36;103565.31;;;-1.18;95.93
57990;BME280;58373;51.824;5.564;2023-01-25T04:43:01;103565.31;;;-1.18;95.84
57990;BME280;58373;51.824;5.564;2023-01-25T04:45:27;103563.56;;;-1.22;95.90
57990;BME280;58373;51.824;5.564;2023-01-25T04:47:57;103568.72;;;-1.19;95.91
57990;BME280;58373;51.824;5.564;2023-01-25T04:50:23;103563.63;;;-1.19;96.17
57990;BME280;58373;51.824;5.564;2023-01-25T04:52:48;103564.47;;;-1.18;95.50
57990;BME280;58373;51.824;5.564;2023-01-25T04:55:14;103552.59;;;-1.19;96.23
57990;BME280;58373;51.824;5.564;2023-01-25T04:57:40;103561.94;;;-1.17;95.58
57990;BME280;58373;51.824;5.564;2023-01-25T05:00:07;103548.34;;;-1.19;96.04
57990;BME280;58373;51.824;5.564;2023-01-25T05:02:33;103541.50;;;-1.23;95.32
57990;BME280;58373;51.824;5.564;2023-01-25T05:04:58;103544.03;;;-1.24;95.49
57990;BME280;58373;51.824;5.564;2023-01-25T05:07:24;103544.91;;;-1.21;95.74
57990;BME280;58373;51.824;5.564;2023-01-25T05:09:49;103541.50;;;-1.23;95.53
57990;BME280;58373;51.824;5.564;2023-01-25T05:12:14;103532.09;;;-1.28;95.40
57990;BME280;58373;51.824;5.564;2023-01-25T05:14:40;103540.66;;;-1.22;95.71
57990;BME280;58373;51.824;5.564;2023-01-25T05:17:06;103540.66;;;-1.22;95.56
57990;BME280;58373;51.824;5.564;2023-01-25T05:19:32;103536.47;;;-1.20;95.75
57990;BME280;58373;51.824;5.564;2023-01-25T05:21:58;103535.59;;;-1.20;95.62
57990;BME280;58373;51.824;5.564;2023-01-25T05:24:29;103541.56;;;-1.20;96.08
57990;BME280;58373;51.824;5.564;2023-01-25T05:26:55;103537.28;;;-1.21;95.78
57990;BME280;58373;51.824;5.564;2023-01-25T05:29:31;103532.19;;;-1.21;96.07
57990;BME280;58373;51.824;5.564;2023-01-25T05:32:00;103523.66;;;-1.24;96.54
57990;BME280;58373;51.824;5.564;2023-01-25T05:34:26;103525.38;;;-1.25;96.65
57990;BME280;58373;51.824;5.564;2023-01-25T05:36:54;103529.63;;;-1.24;96.84
57990;BME280;58373;51.824;5.564;2023-01-25T05:39:19;103521.13;;;-1.26;96.30
57990;BME280;58373;51.824;5.564;2023-01-25T05:41:44;103520.28;;;-1.23;96.72
57990;BME280;58373;51.824;5.564;2023-01-25T05:44:10;103524.53;;;-1.21;96.72
57990;BME280;58373;51.824;5.564;2023-01-25T05:46:35;103524.53;;;-1.24;96.24
57990;BME280;58373;51.824;5.564;2023-01-25T05:49:01;103527.09;;;-1.21;96.43
57990;BME280;58373;51.824;5.564;2023-01-25T05:51:27;103536.41;;;-1.23;96.21
57990;BME280;58373;51.824;5.564;2023-01-25T05:53:55;103528.75;;;-1.24;96.11
57990;BME280;58373;51.824;5.564;2023-01-25T05:56:21;103532.22;;;-1.19;95.91
57990;BME280;58373;51.824;5.564;2023-01-25T05:58:53;103517.72;;;-1.25;96.40
57990;BME280;58373;51.824;5.564;2023-01-25T06:01:19;103517.72;;;-1.25;96.51
57990;BME280;58373;51.824;5.564;2023-01-25T06:03:45;103536.38;;;-1.26;96.86
57990;BME280;58373;51.824;5.564;2023-01-25T06:06:11;103527.91;;;-1.25;96.85
57990;BME280;58373;51.824;5.564;2023-01-25T06:08:36;103515.97;;;-1.29;96.97
57990;BME280;58373;51.824;5.564;2023-01-25T06:11:12;103529.56;;;-1.27;96.82
57990;BME280;58373;51.824;5.564;2023-01-25T06:13:38;103528.66;;;-1.32;96.69
57990;BME280;58373;51.824;5.564;2023-01-25T06:16:03;103515.91;;;-1.35;96.75
57990;BME280;58373;51.824;5.564;2023-01-25T06:18:30;103527.88;;;-1.28;96.56
57990;BME280;58373;51.824;5.564;2023-01-25T06:20:56;103522.75;;;-1.31;96.42
57990;BME280;58373;51.824;5.564;2023-01-25T06:23:22;103531.25;;;-1.29;96.77
57990;BME280;58373;51.824;5.564;2023-01-25T06:25:48;103536.34;;;-1.29;96.38
57990;BME280;58373;51.824;5.564;2023-01-25T06:28:13;103534.59;;;-1.33;96.05
57990;BME280;58373;51.824;5.564;2023-01-25T06:30:39;103543.97;;;-1.29;96.38
57990;BME280;58373;51.824;5.564;2023-01-25T06:33:04;103534.59;;;-1.33;96.46
57990;BME280;58373;51.824;5.564;2023-01-25T06:35:31;103538.84;;;-1.34;96.27
57990;BME280;58373;51.824;5.564;2023-01-25T06:37:57;103539.69;;;-1.33;96.84
57990;BME280;58373;51.824;5.564;2023-01-25T06:40:24;103536.28;;;-1.32;96.70
57990;BME280;58373;51.824;5.564;2023-01-25T06:42:49;103530.38;;;-1.31;96.75
57990;BME280;58373;51.824;5.564;2023-01-25T06:45:15;103521.00;;;-1.32;96.23
57990;BME280;58373;51.824;5.564;2023-01-25T06:47:40;103515.94;;;-1.32;96.72
57990;BME280;58373;51.824;5.564;2023-01-25T06:50:07;103524.41;;;-1.33;96.77
57990;BME280;58373;51.824;5.564;2023-01-25T06:52:33;103524.41;;;-1.33;96.65
57990;BME280;58373;51.824;5.564;2023-01-25T06:55:05;103522.72;;;-1.34;96.60
57990;BME280;58373;51.824;5.564;2023-01-25T06:57:32;103531.19;;;-1.32;96.45
57990;BME280;58373;51.824;5.564;2023-01-25T06:59:58;103532.09;;;-1.30;96.41
57990;BME280;58373;51.824;5.564;2023-01-25T07:02:23;103527.84;;;-1.31;96.53
57990;BME280;58373;51.824;5.564;2023-01-25T07:04:48;103528.63;;;-1.35;96.11
57990;BME280;58373;51.824;5.564;2023-01-25T07:07:14;103521.78;;;-1.39;96.43
57990;BME280;58373;51.824;5.564;2023-01-25T07:09:39;103512.38;;;-1.46;95.70
57990;BME280;58373;51.824;5.564;2023-01-25T07:12:05;103521.66;;;-1.50;96.07
57990;BME280;58373;51.824;5.564;2023-01-25T07:14:30;103524.25;;;-1.48;96.60
57990;BME280;58373;51.824;5.564;2023-01-25T07:16:57;103534.44;;;-1.45;96.61
57990;BME280;58373;51.824;5.564;2023-01-25T07:19:22;103527.66;;;-1.46;96.38
57990;BME280;58373;51.824;5.564;2023-01-25T07:21:47;103517.41;;;-1.52;96.82
57990;BME280;58373;51.824;5.564;2023-01-25T07:24:15;103517.47;;;-1.46;96.88
57990;BME280;58373;51.824;5.564;2023-01-25T07:26:41;103514.94;;;-1.46;97.07
57990;BME280;58373;51.824;5.564;2023-01-25T07:29:11;103506.44;;;-1.47;96.86
57990;BME280;58373;51.824;5.564;2023-01-25T07:31:37;103502.09;;;-1.55;96.53
57990;BME280;58373;51.824;5.564;2023-01-25T07:34:03;103497.84;;;-1.55;96.30
57990;BME280;58373;51.824;5.564;2023-01-25T07:36:29;103510.56;;;-1.56;95.60
57990;BME280;58373;51.824;5.564;2023-01-25T07:38:55;103502.91;;;-1.58;96.75
57990;BME280;58373;51.824;5.564;2023-01-25T07:41:22;103501.19;;;-1.61;96.29
57990;BME280;58373;51.824;5.564;2023-01-25T07:43:48;103507.09;;;-1.62;96.49
57990;BME280;58373;51.824;5.564;2023-01-25T07:46:14;103502.84;;;-1.63;96.33
57990;BME280;58373;51.824;5.564;2023-01-25T07:48:45;103507.16;;;-1.60;96.37
57990;BME280;58373;51.824;5.564;2023-01-25T07:51:10;103490.09;;;-1.66;97.05
57990;BME280;58373;51.824;5.564;2023-01-25T07:53:40;103501.09;;;-1.67;96.62
57990;BME280;58373;51.824;5.564;2023-01-25T07:56:06;103507.09;;;-1.62;96.75
57990;BME280;58373;51.824;5.564;2023-01-25T07:58:32;103509.66;;;-1.62;96.50
57990;BME280;58373;51.824;5.564;2023-01-25T08:01:07;103501.19;;;-1.61;96.04
57990;BME280;58373;51.824;5.564;2023-01-25T08:03:33;103499.47;;;-1.62;96.61
57990;BME280;58373;51.824;5.564;2023-01-25T08:05:58;103493.56;;;-1.61;96.58
57990;BME280;58373;51.824;5.564;2023-01-25T08:08:24;103495.22;;;-1.63;96.29
57990;BME280;58373;51.824;5.564;2023-01-25T08:10:49;103498.59;;;-1.64;96.09
57990;BME280;58373;51.824;5.564;2023-01-25T08:13:15;103498.56;;;-1.67;95.94
57990;BME280;58373;51.824;5.564;2023-01-25T08:15:40;103488.34;;;-1.70;96.32
57990;BME280;58373;51.824;5.564;2023-01-25T08:18:05;103478.13;;;-1.73;96.43
57990;BME280;58373;51.824;5.564;2023-01-25T08:20:30;103486.66;;;-1.68;96.49
57990;BME280;58373;51.824;5.564;2023-01-25T08:22:56;103490.97;;;-1.65;96.90
57990;BME280;58373;51.824;5.564;2023-01-25T08:25:21;103486.75;;;-1.62;96.99
57990;BME280;58373;51.824;5.564;2023-01-25T08:27:46;103475.69;;;-1.65;96.86
57990;BME280;58373;51.824;5.564;2023-01-25T08:30:12;103481.72;;;-1.58;96.60
57990;BME280;58373;51.824;5.564;2023-01-25T08:32:37;103492.75;;;-1.55;96.28
57990;BME280;58373;51.824;5.564;2023-01-25T08:35:03;103481.72;;;-1.55;96.48
57990;BME280;58373;51.824;5.564;2023-01-25T08:37:29;103485.13;;;-1.56;96.41
57990;BME280;58373;51.824;5.564;2023-01-25T08:39:55;103485.16;;;-1.53;96.56
57990;BME280;58373;51.824;5.564;2023-01-25T08:42:24;103486.88;;;-1.52;96.18
57990;BME280;58373;51.824;5.564;2023-01-25T08:44:50;103473.22;;;-1.57;95.40
57990;BME280;58373;51.824;5.564;2023-01-25T08:47:15;103474.94;;;-1.58;95.73
57990;BME280;58373;51.824;5.564;2023-01-25T08:49:40;103473.28;;;-1.54;96.39
57990;BME280;58373;51.824;5.564;2023-01-25T08:52:06;103468.13;;;-1.57;96.46
57990;BME280;58373;51.824;5.564;2023-01-25T08:54:31;103473.22;;;-1.57;96.70
57990;BME280;58373;51.824;5.564;2023-01-25T08:56:56;103465.59;;;-1.59;97.11
57990;BME280;58373;51.824;5.564;2023-01-25T08:59:22;103472.44;;;-1.53;96.78
57990;BME280;58373;51.824;5.564;2023-01-25T09:01:47;103469.91;;;-1.50;97.09
57990;BME280;58373;51.824;5.564;2023-01-25T09:04:13;103470.81;;;-1.48;96.65
57990;BME280;58373;51.824;5.564;2023-01-25T09:06:38;103456.31;;;-1.52;96.95
57990;BME280;58373;51.824;5.564;2023-01-25T09:09:03;103459.72;;;-1.50;96.64
57990;BME280;58373;51.824;5.564;2023-01-25T09:11:29;103453.78;;;-1.49;97.00
57990;BME280;58373;51.824;5.564;2023-01-25T09:13:55;103461.44;;;-1.49;96.95
57990;BME280;58373;51.824;5.564;2023-01-25T09:16:22;103457.19;;;-1.50;96.83
57990;BME280;58373;51.824;5.564;2023-01-25T09:18:59;103452.09;;;-1.52;96.71
57990;BME280;58373;51.824;5.564;2023-01-25T09:21:25;103460.50;;;-1.56;96.11
57990;BME280;58373;51.824;5.564;2023-01-25T09:23:51;103446.03;;;-1.62;96.20
57990;BME280;58373;51.824;5.564;2023-01-25T09:26:17;103443.50;;;-1.62;96.60
57990;BME280;58373;51.824;5.564;2023-01-25T09:28:46;103452.88;;;-1.57;96.55
57990;BME280;58373;51.824;5.564;2023-01-25T09:31:12;103445.22;;;-1.61;97.20
57990;BME280;58373;51.824;5.564;2023-01-25T09:33:39;103454.59;;;-1.55;96.80
57990;BME280;58373;51.824;5.564;2023-01-25T09:36:05;103438.41;;;-1.62;97.35
57990;BME280;58373;51.824;5.564;2023-01-25T09:38:31;103441.84;;;-1.59;96.77
57990;BME280;58373;51.824;5.564;2023-01-25T09:46:13;103441.91;;;-1.53;97.96
57990;BME280;58373;51.824;5.564;2023-01-25T09:48:54;103443.59;;;-1.52;98.03
57990;BME280;58373;51.824;5.564;2023-01-25T09:54:10;103441.97;;;-1.46;97.99
57990;BME280;58373;51.824;5.564;2023-01-25T09:56:37;103442.00;;;-1.43;97.74
57990;BME280;58373;51.824;5.564;2023-01-25T09:59:10;103439.47;;;-1.41;97.69
57990;BME280;58373;51.824;5.564;2023-01-25T10:04:39;103433.56;;;-1.39;98.17
57990;BME280;58373;51.824;5.564;2023-01-25T10:07:23;103433.56;;;-1.39;98.08
57990;BME280;58373;51.824;5.564;2023-01-25T10:09:51;103425.91;;;-1.40;97.72
57990;BME280;58373;51.824;5.564;2023-01-25T10:12:23;103432.69;;;-1.39;98.41
57990;BME280;58373;51.824;5.564;2023-01-25T10:14:50;103434.41;;;-1.38;98.14
57990;BME280;58373;51.824;5.564;2023-01-25T10:17:31;103436.13;;;-1.37;97.64
57990;BME280;58373;51.824;5.564;2023-01-25T10:23:35;103419.06;;;-1.47;97.11
57990;BME280;58373;51.824;5.564;2023-01-25T10:25:39;103424.16;;;-1.47;97.65
57990;BME280;58373;51.824;5.564;2023-01-25T10:28:38;103420.81;;;-1.43;98.17
57990;BME280;58373;51.824;5.564;2023-01-25T10:31:17;103408.88;;;-1.47;98.10
57990;BME280;58373;51.824;5.564;2023-01-25T10:33:45;103398.72;;;-1.44;98.32
57990;BME280;58373;51.824;5.564;2023-01-25T10:36:21;103397.06;;;-1.42;97.99
57990;BME280;58373;51.824;5.564;2023-01-25T10:38:51;103395.34;;;-1.40;98.17
57990;BME280;58373;51.824;5.564;2023-01-25T10:41:28;103388.56;;;-1.41;98.19
57990;BME280;58373;51.824;5.564;2023-01-25T10:44:09;103388.56;;;-1.41;98.30
57990;BME280;58373;51.824;5.564;2023-01-25T10:49:23;103373.34;;;-1.32;98.81
57990;BME280;58373;51.824;5.564;2023-01-25T10:51:51;103371.59;;;-1.39;98.48
57990;BME280;58373;51.824;5.564;2023-01-25T10:54:16;103358.06;;;-1.35;98.55
57990;BME280;58373;51.824;5.564;2023-01-25T10:56:43;103344.50;;;-1.34;98.28
57990;BME280;58373;51.824;5.564;2023-01-25T10:59:24;103340.31;;;-1.30;98.59
57990;BME280;58373;51.824;5.564;2023-01-25T11:01:51;103336.00;;;-1.36;97.99
57990;BME280;58373;51.824;5.564;2023-01-25T11:04:34;103330.97;;;-1.30;98.13
57990;BME280;58373;51.824;5.564;2023-01-25T11:07:02;103321.53;;;-1.39;97.70
57990;BME280;58373;51.824;5.564;2023-01-25T11:09:32;103332.63;;;-1.35;98.14
57990;BME280;58373;51.824;5.564;2023-01-25T11:12:04;103322.41;;;-1.38;98.19
57990;BME280;58373;51.824;5.564;2023-01-25T11:14:32;103326.69;;;-1.34;98.19
57990;BME280;58373;51.824;5.564;2023-01-25T11:16:59;103322.44;;;-1.35;98.35
57990;BME280;58373;51.824;5.564;2023-01-25T11:19:37;103306.28;;;-1.40;97.59
57990;BME280;58373;51.824;5.564;2023-01-25T11:22:22;103304.56;;;-1.41;97.85
57990;BME280;58373;51.824;5.564;2023-01-25T11:24:50;103296.91;;;-1.44;97.76
57990;BME280;58373;51.824;5.564;2023-01-25T11:27:19;103296.91;;;-1.44;97.93
57990;BME280;58373;51.824;5.564;2023-01-25T11:30:06;103283.28;;;-1.49;97.76
57990;BME280;58373;51.824;5.564;2023-01-25T11:32:32;103285.00;;;-1.48;97.79
57990;BME280;58373;51.824;5.564;2023-01-25T11:34:58;103276.53;;;-1.44;97.98
57990;BME280;58373;51.824;5.564;2023-01-25T11:40:22;103273.19;;;-1.40;97.97
57990;BME280;58373;51.824;5.564;2023-01-25T11:49:42;103239.25;;;-1.42;97.90
57990;BME280;58373;51.824;5.564;2023-01-25T11:52:42;103240.94;;;-1.41;98.64
57990;BME280;58373;51.824;5.564;2023-01-25T11:55:34;103234.16;;;-1.39;98.82
57990;BME280;58373;51.824;5.564;2023-01-25T12:00:53;103222.31;;;-1.37;98.08
57990;BME280;58373;51.824;5.564;2023-01-25T12:09:07;103196.78;;;-1.46;98.58
57990;BME280;58373;51.824;5.564;2023-01-25T12:28:19;103157.72;;;-1.51;98.01
57990;BME280;58373;51.824;5.564;2023-01-25T12:31:18;103146.69;;;-1.53;97.97
57990;BME280;58373;51.824;5.564;2023-01-25T12:33:57;103145.81;;;-1.58;98.31
57990;BME280;58373;51.824;5.564;2023-01-25T12:36:34;103121.19;;;-1.66;98.12
57990;BME280;58373;51.824;5.564;2023-01-25T12:39:09;103129.69;;;-1.57;98.01
57990;BME280;58373;51.824;5.564;2023-01-25T12:41:46;103132.28;;;-1.54;98.01
57990;BME280;58373;51.824;5.564;2023-01-25T12:44:23;103120.38;;;-1.55;98.70
57990;BME280;58373;51.824;5.564;2023-01-25T12:49:41;103114.47;;;-1.51;98.00
57990;BME280;58373;51.824;5.564;2023-01-25T12:52:38;103107.69;;;-1.51;97.88
57990;BME280;58373;51.824;5.564;2023-01-25T12:55:16;103118.72;;;-1.53;98.09
57990;BME280;58373;51.824;5.564;2023-01-25T13:00:49;103094.94;;;-1.52;98.47
57990;BME280;58373;51.824;5.564;2023-01-25T13:08:59;103085.63;;;-1.52;98.51
57990;BME280;58373;51.824;5.564;2023-01-25T13:11:39;103066.13;;;-1.51;98.32
57990;BME280;58373;51.824;5.564;2023-01-25T13:16:44;103055.09;;;-1.52;98.41
57990;BME280;58373;51.824;5.564;2023-01-25T13:19:21;103061.03;;;-1.47;98.81
57990;BME280;58373;51.824;5.564;2023-01-25T13:21:48;103064.41;;;-1.49;98.07
57990;BME280;58373;51.824;5.564;2023-01-25T13:24:19;103055.97;;;-1.47;98.72
57990;BME280;58373;51.824;5.564;2023-01-25T13:26:48;103043.22;;;-1.45;98.85
57990;BME280;58373;51.824;5.564;2023-01-25T13:29:43;103041.56;;;-1.43;98.86
57990;BME280;58373;51.824;5.564;2023-01-25T13:37:28;103032.22;;;-1.47;98.58
57990;BME280;58373;51.824;5.564;2023-01-25T13:40:00;103039.00;;;-1.46;97.71
57990;BME280;58373;51.824;5.564;2023-01-25T13:42:33;103032.19;;;-1.50;98.24
57990;BME280;58373;51.824;5.564;2023-01-25T13:45:03;103024.56;;;-1.53;97.96
57990;BME280;58373;51.824;5.564;2023-01-25T13:47:36;103028.78;;;-1.52;97.91
57990;BME280;58373;51.824;5.564;2023-01-25T13:50:12;103018.59;;;-1.52;98.08
57990;BME280;58373;51.824;5.564;2023-01-25T13:52:58;103022.00;;;-1.50;98.02
57990;BME280;58373;51.824;5.564;2023-01-25T13:55:24;103033.84;;;-1.55;98.10
57990;BME280;58373;51.824;5.564;2023-01-25T13:57:49;103040.66;;;-1.51;97.81
57990;BME280;58373;51.824;5.564;2023-01-25T14:00:16;103026.22;;;-1.57;98.54
57990;BME280;58373;51.824;5.564;2023-01-25T14:02:45;103027.09;;;-1.53;98.38
57990;BME280;58373;51.824;5.564;2023-01-25T14:05:22;103039.84;;;-1.47;98.64
57990;BME280;58373;51.824;5.564;2023-01-25T14:07:51;103033.88;;;-1.49;98.28
57990;BME280;58373;51.824;5.564;2023-01-25T14:10:20;103026.25;;;-1.49;97.87
57990;BME280;58373;51.824;5.564;2023-01-25T14:12:49;103011.81;;;-1.50;98.13
57990;BME280;58373;51.824;5.564;2023-01-25T14:17:40;103005.88;;;-1.51;98.34